Lansing, Kansas
Current Conditions -  °F | °C
As of 9:12 AM on Sunday 21 Dec 2014 (Local Time) from KMCI Reporting Station
Drizzle Drizzle  
Wind Chill: 32°   Ceiling: 1500
Heat Index: 39°   Visibility: 10mi
Dew Point: 37°   Wind: 10mph
Humidity: 93%   Direction: 180°S
Pressure: 30"   Gusts: NA
Location:  39.24°N, 94.9°W
Report Text: KMCI 211512Z 18009KT 10SM -DZ SCT009 OVC015 04/03 A3000 RMK AO2 P0000 T00390028 $
Loading
Personal Weather Stations






























Interactive Weather Map New forecast layout! Learn more

10-Day Weather Forecast

Advertisements
Track Severe Weather on mobile